sensor_id;sensor_type;location;lat;lon;timestamp;temperature;humidity
9383;DHT22;4731;49.708;10.816;2022-10-18T00:01:02;12.40;99.90
9383;DHT22;4731;49.708;10.816;2022-10-18T00:03:29;12.40;99.90
9383;DHT22;4731;49.708;10.816;2022-10-18T00:05:56;14.40;99.90
9383;DHT22;4731;49.708;10.816;2022-10-18T00:08:24;12.90;99.90
9383;DHT22;4731;49.708;10.816;2022-10-18T00:10:51;12.30;99.90
9383;DHT22;4731;49.708;10.816;2022-10-18T00:13:19;12.30;99.90
9383;DHT22;4731;49.708;10.816;2022-10-18T00:15:50;12.60;99.90
9383;DHT22;4731;49.708;10.816;2022-10-18T00:18:17;12.20;99.90
9383;DHT22;4731;49.708;10.816;2022-10-18T00:20:45;12.30;99.90
9383;DHT22;4731;49.708;10.816;2022-10-18T00:23:11;12.20;99.90
9383;DHT22;4731;49.708;10.816;2022-10-18T00:25:39;12.20;99.90
9383;DHT22;4731;49.708;10.816;2022-10-18T00:28:06;12.20;99.90
9383;DHT22;4731;49.708;10.816;2022-10-18T00:30:33;12.10;99.90
9383;DHT22;4731;49.708;10.816;2022-10-18T00:33:00;12.10;99.90
9383;DHT22;4731;49.708;10.816;2022-10-18T00:35:26;12.10;99.90
9383;DHT22;4731;49.708;10.816;2022-10-18T00:37:53;12.10;99.90
9383;DHT22;4731;49.708;10.816;2022-10-18T00:40:20;13.30;99.90
9383;DHT22;4731;49.708;10.816;2022-10-18T00:42:48;12.40;99.90
9383;DHT22;4731;49.708;10.816;2022-10-18T00:45:18;12.00;99.90
9383;DHT22;4731;49.708;10.816;2022-10-18T00:47:48;11.90;99.90
9383;DHT22;4731;49.708;10.816;2022-10-18T00:50:16;12.00;99.90
9383;DHT22;4731;49.708;10.816;2022-10-18T00:52:46;12.60;99.90
9383;DHT22;4731;49.708;10.816;2022-10-18T00:55:14;11.90;99.90
9383;DHT22;4731;49.708;10.816;2022-10-18T00:57:41;12.60;99.90
9383;DHT22;4731;49.708;10.816;2022-10-18T01:00:12;11.90;99.90
9383;DHT22;4731;49.708;10.816;2022-10-18T01:02:40;11.90;99.90
9383;DHT22;4731;49.708;10.816;2022-10-18T01:05:09;11.90;99.90
9383;DHT22;4731;49.708;10.816;2022-10-18T01:07:49;11.90;99.90
9383;DHT22;4731;49.708;10.816;2022-10-18T01:10:25;14.20;99.90
9383;DHT22;4731;49.708;10.816;2022-10-18T01:13:03;13.60;99.90
9383;DHT22;4731;49.708;10.816;2022-10-18T01:15:36;12.00;99.90
9383;DHT22;4731;49.708;10.816;2022-10-18T01:18:11;13.10;99.90
9383;DHT22;4731;49.708;10.816;2022-10-18T01:21:08;13.10;99.90
9383;DHT22;4731;49.708;10.816;2022-10-18T01:23:50;12.80;99.90
9383;DHT22;4731;49.708;10.816;2022-10-18T01:26:32;14.00;99.90
9383;DHT22;4731;49.708;10.816;2022-10-18T01:29:11;13.30;99.90
9383;DHT22;4731;49.708;10.816;2022-10-18T01:31:44;13.10;99.90
9383;DHT22;4731;49.708;10.816;2022-10-18T01:34:14;11.80;99.90
9383;DHT22;4731;49.708;10.816;2022-10-18T01:36:45;11.80;99.90
9383;DHT22;4731;49.708;10.816;2022-10-18T01:39:15;11.80;99.90
9383;DHT22;4731;49.708;10.816;2022-10-18T01:41:44;13.10;99.90
9383;DHT22;4731;49.708;10.816;2022-10-18T01:44:15;14.10;99.90
9383;DHT22;4731;49.708;10.816;2022-10-18T01:46:46;13.60;99.90
9383;DHT22;4731;49.708;10.816;2022-10-18T01:49:13;11.90;99.90
9383;DHT22;4731;49.708;10.816;2022-10-18T01:51:40;14.90;99.90
9383;DHT22;4731;49.708;10.816;2022-10-18T01:54:07;11.70;99.90
9383;DHT22;4731;49.708;10.816;2022-10-18T01:56:41;14.30;99.90
9383;DHT22;4731;49.708;10.816;2022-10-18T01:59:21;12.00;99.90
9383;DHT22;4731;49.708;10.816;2022-10-18T02:02:01;11.90;99.90
9383;DHT22;4731;49.708;10.816;2022-10-18T02:04:35;13.30;99.90
9383;DHT22;4731;49.708;10.816;2022-10-18T02:07:08;14.60;99.90
9383;DHT22;4731;49.708;10.816;2022-10-18T02:09:42;12.70;99.90
9383;DHT22;4731;49.708;10.816;2022-10-18T02:12:13;11.60;99.90
9383;DHT22;4731;49.708;10.816;2022-10-18T02:14:42;13.60;99.90
9383;DHT22;4731;49.708;10.816;2022-10-18T02:17:11;11.60;99.90
9383;DHT22;4731;49.708;10.816;2022-10-18T02:19:42;11.70;99.90
9383;DHT22;4731;49.708;10.816;2022-10-18T02:22:10;11.60;99.90
9383;DHT22;4731;49.708;10.816;2022-10-18T02:24:42;14.40;99.90
9383;DHT22;4731;49.708;10.816;2022-10-18T02:27:09;11.90;99.90
9383;DHT22;4731;49.708;10.816;2022-10-18T02:29:37;11.50;99.90
9383;DHT22;4731;49.708;10.816;2022-10-18T02:32:09;11.50;99.90
9383;DHT22;4731;49.708;10.816;2022-10-18T02:34:41;11.70;99.90
9383;DHT22;4731;49.708;10.816;2022-10-18T02:37:10;11.60;99.90
9383;DHT22;4731;49.708;10.816;2022-10-18T02:39:40;11.40;99.90
9383;DHT22;4731;49.708;10.816;2022-10-18T02:42:09;13.30;99.90
9383;DHT22;4731;49.708;10.816;2022-10-18T02:44:37;11.70;99.90
9383;DHT22;4731;49.708;10.816;2022-10-18T02:47:05;13.20;99.90
9383;DHT22;4731;49.708;10.816;2022-10-18T02:49:32;11.40;99.90
9383;DHT22;4731;49.708;10.816;2022-10-18T02:52:01;12.20;99.90
9383;DHT22;4731;49.708;10.816;2022-10-18T02:54:27;11.40;99.90
9383;DHT22;4731;49.708;10.816;2022-10-18T02:56:54;12.00;99.90
9383;DHT22;4731;49.708;10.816;2022-10-18T02:59:21;12.80;99.90
9383;DHT22;4731;49.708;10.816;2022-10-18T03:01:47;12.10;99.90
9383;DHT22;4731;49.708;10.816;2022-10-18T03:04:14;11.30;99.90
9383;DHT22;4731;49.708;10.816;2022-10-18T03:06:41;11.30;99.90
9383;DHT22;4731;49.708;10.816;2022-10-18T03:09:09;11.30;99.90
9383;DHT22;4731;49.708;10.816;2022-10-18T03:11:36;11.30;99.90
9383;DHT22;4731;49.708;10.816;2022-10-18T03:14:03;11.40;99.90
9383;DHT22;4731;49.708;10.816;2022-10-18T03:16:29;11.40;99.90
9383;DHT22;4731;49.708;10.816;2022-10-18T03:18:56;11.50;99.90
9383;DHT22;4731;49.708;10.816;2022-10-18T03:21:23;13.50;99.90
9383;DHT22;4731;49.708;10.816;2022-10-18T03:23:50;11.60;99.90
9383;DHT22;4731;49.708;10.816;2022-10-18T03:26:18;12.20;99.90
9383;DHT22;4731;49.708;10.816;2022-10-18T03:28:46;11.70;99.90
9383;DHT22;4731;49.708;10.816;2022-10-18T03:31:12;13.80;99.90
9383;DHT22;4731;49.708;10.816;2022-10-18T03:33:39;13.80;99.90
9383;DHT22;4731;49.708;10.816;2022-10-18T03:36:06;13.30;99.90
9383;DHT22;4731;49.708;10.816;2022-10-18T03:38:33;12.00;99.90
9383;DHT22;4731;49.708;10.816;2022-10-18T03:40:59;12.10;99.90
9383;DHT22;4731;49.708;10.816;2022-10-18T03:43:28;13.80;99.90
9383;DHT22;4731;49.708;10.816;2022-10-18T03:45:55;14.30;99.90
9383;DHT22;4731;49.708;10.816;2022-10-18T03:48:21;12.30;99.90
9383;DHT22;4731;49.708;10.816;2022-10-18T03:50:48;14.50;99.90
9383;DHT22;4731;49.708;10.816;2022-10-18T03:53:15;12.80;99.90
9383;DHT22;4731;49.708;10.816;2022-10-18T03:55:42;13.60;99.90
9383;DHT22;4731;49.708;10.816;2022-10-18T03:58:08;12.70;99.90
9383;DHT22;4731;49.708;10.816;2022-10-18T04:00:37;12.90;99.90
9383;DHT22;4731;49.708;10.816;2022-10-18T04:03:03;12.50;99.90
9383;DHT22;4731;49.708;10.816;2022-10-18T04:05:30;14.30;99.90
9383;DHT22;4731;49.708;10.816;2022-10-18T04:07:58;15.10;99.90
9383;DHT22;4731;49.708;10.816;2022-10-18T04:10:25;12.60;99.90
9383;DHT22;4731;49.708;10.816;2022-10-18T04:12:52;14.90;99.90
9383;DHT22;4731;49.708;10.816;2022-10-18T04:15:19;13.80;99.90
9383;DHT22;4731;49.708;10.816;2022-10-18T04:17:47;12.80;99.90
9383;DHT22;4731;49.708;10.816;2022-10-18T04:20:15;12.80;99.90
9383;DHT22;4731;49.708;10.816;2022-10-18T04:22:41;12.80;99.90
9383;DHT22;4731;49.708;10.816;2022-10-18T04:25:08;15.30;99.90
9383;DHT22;4731;49.708;10.816;2022-10-18T04:27:35;12.80;99.90
9383;DHT22;4731;49.708;10.816;2022-10-18T04:30:02;12.70;99.90
9383;DHT22;4731;49.708;10.816;2022-10-18T04:32:29;12.80;99.90
9383;DHT22;4731;49.708;10.816;2022-10-18T04:34:57;12.80;99.90
9383;DHT22;4731;49.708;10.816;2022-10-18T04:37:24;12.90;99.90
9383;DHT22;4731;49.708;10.816;2022-10-18T04:39:51;12.90;99.90
9383;DHT22;4731;49.708;10.816;2022-10-18T04:42:17;12.80;99.90
9383;DHT22;4731;49.708;10.816;2022-10-18T04:44:44;12.80;99.90
9383;DHT22;4731;49.708;10.816;2022-10-18T04:47:11;14.20;99.90
9383;DHT22;4731;49.708;10.816;2022-10-18T04:49:37;12.90;99.90
9383;DHT22;4731;49.708;10.816;2022-10-18T04:52:06;12.90;99.90
9383;DHT22;4731;49.708;10.816;2022-10-18T04:54:33;14.50;99.90
9383;DHT22;4731;49.708;10.816;2022-10-18T04:57:00;13.60;99.90
9383;DHT22;4731;49.708;10.816;2022-10-18T04:59:27;12.80;99.90
9383;DHT22;4731;49.708;10.816;2022-10-18T05:01:54;14.10;99.90
9383;DHT22;4731;49.708;10.816;2022-10-18T05:04:21;13.90;99.90
9383;DHT22;4731;49.708;10.816;2022-10-18T05:06:47;12.90;99.90
9383;DHT22;4731;49.708;10.816;2022-10-18T05:09:15;12.90;99.90
9383;DHT22;4731;49.708;10.816;2022-10-18T05:11:42;12.90;99.90
9383;DHT22;4731;49.708;10.816;2022-10-18T05:14:09;13.00;99.90
9383;DHT22;4731;49.708;10.816;2022-10-18T05:16:36;13.00;99.90
9383;DHT22;4731;49.708;10.816;2022-10-18T05:19:03;13.00;99.90
9383;DHT22;4731;49.708;10.816;2022-10-18T05:21:30;13.80;99.90
9383;DHT22;4731;49.708;10.816;2022-10-18T05:23:57;13.70;99.90
9383;DHT22;4731;49.708;10.816;2022-10-18T05:26:25;13.00;99.90
9383;DHT22;4731;49.708;10.816;2022-10-18T05:28:52;13.30;99.90
9383;DHT22;4731;49.708;10.816;2022-10-18T05:31:19;13.00;99.90
9383;DHT22;4731;49.708;10.816;2022-10-18T05:33:46;14.10;99.90
9383;DHT22;4731;49.708;10.816;2022-10-18T05:36:13;13.00;99.90
9383;DHT22;4731;49.708;10.816;2022-10-18T05:38:41;13.00;99.90
9383;DHT22;4731;49.708;10.816;2022-10-18T05:41:08;13.00;99.90
9383;DHT22;4731;49.708;10.816;2022-10-18T05:43:37;13.40;99.90
9383;DHT22;4731;49.708;10.816;2022-10-18T05:46:04;13.90;99.90
9383;DHT22;4731;49.708;10.816;2022-10-18T05:48:32;13.10;99.90
9383;DHT22;4731;49.708;10.816;2022-10-18T05:50:59;13.10;99.90
9383;DHT22;4731;49.708;10.816;2022-10-18T05:53:26;13.30;99.90
9383;DHT22;4731;49.708;10.816;2022-10-18T05:55:53;14.90;99.90
9383;DHT22;4731;49.708;10.816;2022-10-18T05:58:20;13.10;99.90
9383;DHT22;4731;49.708;10.816;2022-10-18T06:00:48;15.10;99.90
9383;DHT22;4731;49.708;10.816;2022-10-18T06:03:16;13.00;99.90
9383;DHT22;4731;49.708;10.816;2022-10-18T06:05:43;13.10;99.90
9383;DHT22;4731;49.708;10.816;2022-10-18T06:08:10;13.00;99.90
9383;DHT22;4731;49.708;10.816;2022-10-18T06:10:37;12.90;99.90
9383;DHT22;4731;49.708;10.816;2022-10-18T06:13:05;12.90;99.90
9383;DHT22;4731;49.708;10.816;2022-10-18T06:15:31;14.40;99.90
9383;DHT22;4731;49.708;10.816;2022-10-18T06:18:00;13.00;99.90
9383;DHT22;4731;49.708;10.816;2022-10-18T06:20:26;13.00;99.90
9383;DHT22;4731;49.708;10.816;2022-10-18T06:22:53;13.10;99.90
9383;DHT22;4731;49.708;10.816;2022-10-18T06:25:20;14.60;99.90
9383;DHT22;4731;49.708;10.816;2022-10-18T06:27:47;13.00;99.90
9383;DHT22;4731;49.708;10.816;2022-10-18T06:30:13;13.00;99.90
9383;DHT22;4731;49.708;10.816;2022-10-18T06:32:41;13.00;99.90
9383;DHT22;4731;49.708;10.816;2022-10-18T06:35:09;15.00;99.90
9383;DHT22;4731;49.708;10.816;2022-10-18T06:37:36;13.40;99.90
9383;DHT22;4731;49.708;10.816;2022-10-18T06:40:03;13.10;99.90
9383;DHT22;4731;49.708;10.816;2022-10-18T06:42:30;12.90;99.90
9383;DHT22;4731;49.708;10.816;2022-10-18T06:44:57;13.20;99.90
9383;DHT22;4731;49.708;10.816;2022-10-18T06:47:25;13.00;99.90
9383;DHT22;4731;49.708;10.816;2022-10-18T06:49:52;14.60;99.90
9383;DHT22;4731;49.708;10.816;2022-10-18T06:52:20;13.90;99.90
9383;DHT22;4731;49.708;10.816;2022-10-18T06:54:50;13.10;99.90
9383;DHT22;4731;49.708;10.816;2022-10-18T06:57:17;14.70;99.90
9383;DHT22;4731;49.708;10.816;2022-10-18T06:59:44;13.20;99.90
9383;DHT22;4731;49.708;10.816;2022-10-18T07:02:14;13.20;99.90
9383;DHT22;4731;49.708;10.816;2022-10-18T07:04:42;13.50;99.90
9383;DHT22;4731;49.708;10.816;2022-10-18T07:07:08;13.60;99.90
9383;DHT22;4731;49.708;10.816;2022-10-18T07:09:37;13.80;99.90
9383;DHT22;4731;49.708;10.816;2022-10-18T07:12:04;14.30;99.90
9383;DHT22;4731;49.708;10.816;2022-10-18T07:14:30;14.70;99.90
9383;DHT22;4731;49.708;10.816;2022-10-18T07:16:58;16.00;99.90
9383;DHT22;4731;49.708;10.816;2022-10-18T07:19:25;17.80;99.90
9383;DHT22;4731;49.708;10.816;2022-10-18T07:21:52;18.40;99.90
9383;DHT22;4731;49.708;10.816;2022-10-18T07:24:19;19.40;99.90
9383;DHT22;4731;49.708;10.816;2022-10-18T07:26:47;21.30;99.90
9383;DHT22;4731;49.708;10.816;2022-10-18T07:29:13;22.70;99.90
9383;DHT22;4731;49.708;10.816;2022-10-18T07:31:40;22.50;99.90
9383;DHT22;4731;49.708;10.816;2022-10-18T07:34:09;23.90;99.90
9383;DHT22;4731;49.708;10.816;2022-10-18T07:36:36;23.90;99.90
9383;DHT22;4731;49.708;10.816;2022-10-18T07:39:03;23.00;99.90
9383;DHT22;4731;49.708;10.816;2022-10-18T07:41:30;22.90;99.90
9383;DHT22;4731;49.708;10.816;2022-10-18T07:44:00;23.30;99.90
9383;DHT22;4731;49.708;10.816;2022-10-18T07:46:27;23.00;99.90
9383;DHT22;4731;49.708;10.816;2022-10-18T07:48:54;24.10;99.90
9383;DHT22;4731;49.708;10.816;2022-10-18T07:51:22;25.60;99.90
9383;DHT22;4731;49.708;10.816;2022-10-18T07:53:49;27.00;99.90
9383;DHT22;4731;49.708;10.816;2022-10-18T07:56:18;27.10;99.90
9383;DHT22;4731;49.708;10.816;2022-10-18T07:58:46;27.50;99.90
9383;DHT22;4731;49.708;10.816;2022-10-18T08:01:14;27.00;99.90
9383;DHT22;4731;49.708;10.816;2022-10-18T08:03:42;26.20;99.90
9383;DHT22;4731;49.708;10.816;2022-10-18T08:06:10;25.70;99.90
9383;DHT22;4731;49.708;10.816;2022-10-18T08:08:38;26.20;99.90
9383;DHT22;4731;49.708;10.816;2022-10-18T08:11:08;26.90;99.90
9383;DHT22;4731;49.708;10.816;2022-10-18T08:13:35;27.80;99.90
9383;DHT22;4731;49.708;10.816;2022-10-18T08:16:04;28.30;99.90
9383;DHT22;4731;49.708;10.816;2022-10-18T08:18:32;28.30;99.90
9383;DHT22;4731;49.708;10.816;2022-10-18T08:20:59;27.20;99.90
9383;DHT22;4731;49.708;10.816;2022-10-18T08:23:27;26.60;99.90
9383;DHT22;4731;49.708;10.816;2022-10-18T08:25:53;26.40;99.90
9383;DHT22;4731;49.708;10.816;2022-10-18T08:28:20;26.10;99.90
9383;DHT22;4731;49.708;10.816;2022-10-18T08:30:47;24.80;99.90
9383;DHT22;4731;49.708;10.816;2022-10-18T08:33:14;25.60;99.90
9383;DHT22;4731;49.708;10.816;2022-10-18T08:35:42;27.40;99.90
9383;DHT22;4731;49.708;10.816;2022-10-18T08:38:09;29.00;99.90
9383;DHT22;4731;49.708;10.816;2022-10-18T08:40:42;28.70;99.90
9383;DHT22;4731;49.708;10.816;2022-10-18T08:43:15;28.10;99.90
9383;DHT22;4731;49.708;10.816;2022-10-18T08:45:45;25.80;99.90
9383;DHT22;4731;49.708;10.816;2022-10-18T08:48:18;24.30;99.90
9383;DHT22;4731;49.708;10.816;2022-10-18T08:50:48;23.90;99.90
9383;DHT22;4731;49.708;10.816;2022-10-18T08:53:18;23.70;99.90
9383;DHT22;4731;49.708;10.816;2022-10-18T08:55:49;23.70;99.90
9383;DHT22;4731;49.708;10.816;2022-10-18T08:58:19;22.90;99.90
9383;DHT22;4731;49.708;10.816;2022-10-18T09:00:53;23.20;99.90
9383;DHT22;4731;49.708;10.816;2022-10-18T09:03:33;23.30;99.90
9383;DHT22;4731;49.708;10.816;2022-10-18T09:06:12;22.60;99.90
9383;DHT22;4731;49.708;10.816;2022-10-18T09:08:49;21.50;99.90
9383;DHT22;4731;49.708;10.816;2022-10-18T09:11:26;22.20;99.90
9383;DHT22;4731;49.708;10.816;2022-10-18T09:16:46;23.10;99.90
9383;DHT22;4731;49.708;10.816;2022-10-18T09:19:22;23.40;99.90
9383;DHT22;4731;49.708;10.816;2022-10-18T09:21:54;24.00;99.90
9383;DHT22;4731;49.708;10.816;2022-10-18T09:24:26;24.70;99.90
9383;DHT22;4731;49.708;10.816;2022-10-18T09:26:57;24.90;99.90
9383;DHT22;4731;49.708;10.816;2022-10-18T09:29:44;24.50;99.90
9383;DHT22;4731;49.708;10.816;2022-10-18T09:32:25;24.40;99.90
9383;DHT22;4731;49.708;10.816;2022-10-18T09:34:56;24.20;99.90
9383;DHT22;4731;49.708;10.816;2022-10-18T09:37:29;24.10;99.90
9383;DHT22;4731;49.708;10.816;2022-10-18T09:40:02;23.70;99.90
9383;DHT22;4731;49.708;10.816;2022-10-18T09:42:35;23.00;99.90
9383;DHT22;4731;49.708;10.816;2022-10-18T09:45:07;22.30;99.90
9383;DHT22;4731;49.708;10.816;2022-10-18T09:47:43;21.80;99.90
9383;DHT22;4731;49.708;10.816;2022-10-18T09:50:20;21.40;99.90
9383;DHT22;4731;49.708;10.816;2022-10-18T09:52:54;20.80;99.90
9383;DHT22;4731;49.708;10.816;2022-10-18T09:55:30;20.70;99.90
9383;DHT22;4731;49.708;10.816;2022-10-18T09:58:01;20.60;99.90
9383;DHT22;4731;49.708;10.816;2022-10-18T10:00:33;20.60;99.90
9383;DHT22;4731;49.708;10.816;2022-10-18T10:03:00;20.50;99.90
9383;DHT22;4731;49.708;10.816;2022-10-18T10:05:27;20.60;99.90
9383;DHT22;4731;49.708;10.816;2022-10-18T10:07:58;20.60;99.90
9383;DHT22;4731;49.708;10.816;2022-10-18T10:10:28;20.60;99.90
9383;DHT22;4731;49.708;10.816;2022-10-18T10:13:03;20.70;99.90
9383;DHT22;4731;49.708;10.816;2022-10-18T10:15:31;20.70;99.90
9383;DHT22;4731;49.708;10.816;2022-10-18T10:18:02;20.60;99.90
9383;DHT22;4731;49.708;10.816;2022-10-18T10:20:33;20.70;99.90
9383;DHT22;4731;49.708;10.816;2022-10-18T10:23:07;20.50;99.90
9383;DHT22;4731;49.708;10.816;2022-10-18T10:25:36;20.40;99.90
9383;DHT22;4731;49.708;10.816;2022-10-18T10:28:06;20.30;99.90
9383;DHT22;4731;49.708;10.816;2022-10-18T10:30:34;20.20;99.90
9383;DHT22;4731;49.708;10.816;2022-10-18T10:33:02;20.10;99.90
9383;DHT22;4731;49.708;10.816;2022-10-18T10:35:31;20.30;99.90
9383;DHT22;4731;49.708;10.816;2022-10-18T10:37:58;20.10;99.90
9383;DHT22;4731;49.708;10.816;2022-10-18T10:40:27;20.10;99.90
9383;DHT22;4731;49.708;10.816;2022-10-18T10:43:02;20.20;99.90
9383;DHT22;4731;49.708;10.816;2022-10-18T10:45:33;20.20;99.90
9383;DHT22;4731;49.708;10.816;2022-10-18T10:48:04;20.00;99.90
9383;DHT22;4731;49.708;10.816;2022-10-18T10:50:46;20.00;99.90
9383;DHT22;4731;49.708;10.816;2022-10-18T10:53:26;20.00;99.90
9383;DHT22;4731;49.708;10.816;2022-10-18T10:55:56;19.80;99.90
9383;DHT22;4731;49.708;10.816;2022-10-18T10:58:23;20.40;99.90
9383;DHT22;4731;49.708;10.816;2022-10-18T11:00:51;19.70;99.90
9383;DHT22;4731;49.708;10.816;2022-10-18T11:03:20;19.70;99.90
9383;DHT22;4731;49.708;10.816;2022-10-18T11:05:49;19.60;99.90
9383;DHT22;4731;49.708;10.816;2022-10-18T11:08:19;19.50;99.90
9383;DHT22;4731;49.708;10.816;2022-10-18T11:11:03;19.30;99.90
9383;DHT22;4731;49.708;10.816;2022-10-18T11:13:44;19.30;99.90
9383;DHT22;4731;49.708;10.816;2022-10-18T11:16:16;19.30;99.90
9383;DHT22;4731;49.708;10.816;2022-10-18T11:18:48;19.30;99.90
9383;DHT22;4731;49.708;10.816;2022-10-18T11:21:18;19.30;99.90
9383;DHT22;4731;49.708;10.816;2022-10-18T11:23:47;19.50;99.90
9383;DHT22;4731;49.708;10.816;2022-10-18T11:26:32;19.50;99.90
9383;DHT22;4731;49.708;10.816;2022-10-18T11:29:12;19.50;99.90
9383;DHT22;4731;49.708;10.816;2022-10-18T11:31:44;19.60;99.90
9383;DHT22;4731;49.708;10.816;2022-10-18T11:34:27;19.80;99.90
9383;DHT22;4731;49.708;10.816;2022-10-18T11:37:01;19.90;99.90
9383;DHT22;4731;49.708;10.816;2022-10-18T11:39:38;20.00;99.90
9383;DHT22;4731;49.708;10.816;2022-10-18T11:42:15;20.00;99.90
9383;DHT22;4731;49.708;10.816;2022-10-18T11:44:52;19.90;99.90
9383;DHT22;4731;49.708;10.816;2022-10-18T11:47:26;19.90;99.90
9383;DHT22;4731;49.708;10.816;2022-10-18T11:50:05;20.00;99.90
9383;DHT22;4731;49.708;10.816;2022-10-18T11:52:43;19.70;99.90
9383;DHT22;4731;49.708;10.816;2022-10-18T11:55:26;19.70;99.90
9383;DHT22;4731;49.708;10.816;2022-10-18T11:58:01;19.70;99.90
9383;DHT22;4731;49.708;10.816;2022-10-18T12:00:42;19.70;99.90
9383;DHT22;4731;49.708;10.816;2022-10-18T12:03:17;19.70;99.90
9383;DHT22;4731;49.708;10.816;2022-10-18T12:05:47;19.40;99.90
9383;DHT22;4731;49.708;10.816;2022-10-18T12:08:18;19.40;99.90
9383;DHT22;4731;49.708;10.816;2022-10-18T12:10:49;19.20;99.90
9383;DHT22;4731;49.708;10.816;2022-10-18T12:13:22;19.20;99.90
9383;DHT22;4731;49.708;10.816;2022-10-18T12:15:51;19.10;99.90
9383;DHT22;4731;49.708;10.816;2022-10-18T12:18:20;19.20;99.90
9383;DHT22;4731;49.708;10.816;2022-10-18T12:20:48;19.20;99.90
9383;DHT22;4731;49.708;10.816;2022-10-18T12:23:19;19.30;99.90
9383;DHT22;4731;49.708;10.816;2022-10-18T12:25:49;19.40;99.90
9383;DHT22;4731;49.708;10.816;2022-10-18T12:28:32;19.60;99.90
9383;DHT22;4731;49.708;10.816;2022-10-18T12:31:07;19.50;99.90
9383;DHT22;4731;49.708;10.816;2022-10-18T12:33:42;19.50;99.90
9383;DHT22;4731;49.708;10.816;2022-10-18T12:36:23;19.60;99.90
9383;DHT22;4731;49.708;10.816;2022-10-18T12:38:56;19.70;99.90
9383;DHT22;4731;49.708;10.816;2022-10-18T12:41:25;19.90;99.90
9383;DHT22;4731;49.708;10.816;2022-10-18T12:43:58;20.00;99.90
9383;DHT22;4731;49.708;10.816;2022-10-18T12:46:42;20.00;99.90
9383;DHT22;4731;49.708;10.816;2022-10-18T12:49:11;20.10;99.90
9383;DHT22;4731;49.708;10.816;2022-10-18T12:51:49;19.70;99.90
9383;DHT22;4731;49.708;10.816;2022-10-18T12:54:21;19.60;99.90
9383;DHT22;4731;49.708;10.816;2022-10-18T12:56:49;19.60;99.90
9383;DHT22;4731;49.708;10.816;2022-10-18T12:59:48;19.60;99.90
9383;DHT22;4731;49.708;10.816;2022-10-18T13:02:33;19.50;99.90
9383;DHT22;4731;49.708;10.816;2022-10-18T13:05:00;19.60;99.90
9383;DHT22;4731;49.708;10.816;2022-10-18T13:07:46;19.60;99.90
9383;DHT22;4731;49.708;10.816;2022-10-18T13:10:38;19.70;99.90
9383;DHT22;4731;49.708;10.816;2022-10-18T13:16:09;19.70;99.90
9383;DHT22;4731;49.708;10.816;2022-10-18T13:18:49;19.40;99.90
9383;DHT22;4731;49.708;10.816;2022-10-18T13:21:25;19.30;99.90
9383;DHT22;4731;49.708;10.816;2022-10-18T13:26:57;19.10;99.90
9383;DHT22;4731;49.708;10.816;2022-10-18T13:29:43;19.10;99.90
9383;DHT22;4731;49.708;10.816;2022-10-18T13:32:21;19.10;99.90
9383;DHT22;4731;49.708;10.816;2022-10-18T13:34:49;19.10;99.90
9383;DHT22;4731;49.708;10.816;2022-10-18T13:37:21;19.20;99.90
9383;DHT22;4731;49.708;10.816;2022-10-18T13:39:50;19.20;99.90
9383;DHT22;4731;49.708;10.816;2022-10-18T13:42:30;19.20;99.90
9383;DHT22;4731;49.708;10.816;2022-10-18T13:51:20;19.50;99.90
9383;DHT22;4731;49.708;10.816;2022-10-18T13:53:56;19.40;99.90
9383;DHT22;4731;49.708;10.816;2022-10-18T13:56:37;19.40;99.90
9383;DHT22;4731;49.708;10.816;2022-10-18T13:59:22;19.30;99.90
9383;DHT22;4731;49.708;10.816;2022-10-18T14:02:15;19.30;99.90
9383;DHT22;4731;49.708;10.816;2022-10-18T14:04:58;19.30;99.90
9383;DHT22;4731;49.708;10.816;2022-10-18T14:07:29;19.20;99.90
9383;DHT22;4731;49.708;10.816;2022-10-18T14:09:56;19.10;99.90
9383;DHT22;4731;49.708;10.816;2022-10-18T14:12:30;18.90;99.90
9383;DHT22;4731;49.708;10.816;2022-10-18T14:15:04;18.80;99.90
9383;DHT22;4731;49.708;10.816;2022-10-18T14:17:37;18.70;99.90
9383;DHT22;4731;49.708;10.816;2022-10-18T14:20:17;18.70;99.90
9383;DHT22;4731;49.708;10.816;2022-10-18T14:22:49;18.60;99.90
9383;DHT22;4731;49.708;10.816;2022-10-18T14:25:20;18.60;99.90
9383;DHT22;4731;49.708;10.816;2022-10-18T14:27:47;18.60;99.90
9383;DHT22;4731;49.708;10.816;2022-10-18T14:30:15;19.40;99.90
9383;DHT22;4731;49.708;10.816;2022-10-18T14:32:44;18.80;99.90
9383;DHT22;4731;49.708;10.816;2022-10-18T14:35:20;18.90;99.90
9383;DHT22;4731;49.708;10.816;2022-10-18T14:37:50;18.90;99.90
9383;DHT22;4731;49.708;10.816;2022-10-18T14:40:33;18.90;99.90
9383;DHT22;4731;49.708;10.816;2022-10-18T14:43:05;18.90;99.90
9383;DHT22;4731;49.708;10.816;2022-10-18T14:45:35;18.90;99.90
9383;DHT22;4731;49.708;10.816;2022-10-18T14:48:12;18.90;99.90
9383;DHT22;4731;49.708;10.816;2022-10-18T14:50:40;19.00;99.90
9383;DHT22;4731;49.708;10.816;2022-10-18T14:53:14;18.90;99.90
9383;DHT22;4731;49.708;10.816;2022-10-18T14:55:42;19.00;99.90
9383;DHT22;4731;49.708;10.816;2022-10-18T14:58:14;19.00;99.90
9383;DHT22;4731;49.708;10.816;2022-10-18T15:00:41;19.10;99.90
9383;DHT22;4731;49.708;10.816;2022-10-18T15:03:13;19.00;99.90
9383;DHT22;4731;49.708;10.816;2022-10-18T15:05:51;18.90;99.90
9383;DHT22;4731;49.708;10.816;2022-10-18T15:08:20;18.90;99.90
9383;DHT22;4731;49.708;10.816;2022-10-18T15:10:47;18.80;99.90
9383;DHT22;4731;49.708;10.816;2022-10-18T15:13:15;18.80;99.90
9383;DHT22;4731;49.708;10.816;2022-10-18T15:15:42;18.70;99.90
9383;DHT22;4731;49.708;10.816;2022-10-18T15:18:19;18.50;99.90
9383;DHT22;4731;49.708;10.816;2022-10-18T15:21:06;18.50;99.90
9383;DHT22;4731;49.708;10.816;2022-10-18T15:23:34;18.60;99.90
9383;DHT22;4731;49.708;10.816;2022-10-18T15:26:03;18.40;99.90
9383;DHT22;4731;49.708;10.816;2022-10-18T15:28:33;18.40;99.90
9383;DHT22;4731;49.708;10.816;2022-10-18T15:31:01;18.50;99.90
9383;DHT22;4731;49.708;10.816;2022-10-18T15:33:31;18.40;99.90
9383;DHT22;4731;49.708;10.816;2022-10-18T15:36:10;18.40;99.90
9383;DHT22;4731;49.708;10.816;2022-10-18T15:38:39;18.30;99.90
9383;DHT22;4731;49.708;10.816;2022-10-18T15:41:37;18.40;99.90
9383;DHT22;4731;49.708;10.816;2022-10-18T15:44:16;18.20;99.90
9383;DHT22;4731;49.708;10.816;2022-10-18T15:46:44;18.30;99.90
9383;DHT22;4731;49.708;10.816;2022-10-18T15:52:40;18.30;99.90
9383;DHT22;4731;49.708;10.816;2022-10-18T15:58:21;18.20;99.90
9383;DHT22;4731;49.708;10.816;2022-10-18T16:00:50;18.20;99.90
9383;DHT22;4731;49.708;10.816;2022-10-18T16:03:18;18.10;99.90
9383;DHT22;4731;49.708;10.816;2022-10-18T16:05:49;18.10;99.90
9383;DHT22;4731;49.708;10.816;2022-10-18T16:08:22;18.20;99.90
9383;DHT22;4731;49.708;10.816;2022-10-18T16:10:49;18.00;99.90
9383;DHT22;4731;49.708;10.816;2022-10-18T16:13:16;18.00;99.90
9383;DHT22;4731;49.708;10.816;2022-10-18T16:15:45;17.90;99.90
9383;DHT22;4731;49.708;10.816;2022-10-18T16:18:16;17.80;99.90
9383;DHT22;4731;49.708;10.816;2022-10-18T16:20:43;17.70;99.90
9383;DHT22;4731;49.708;10.816;2022-10-18T16:23:17;17.70;99.90
9383;DHT22;4731;49.708;10.816;2022-10-18T16:25:44;17.60;99.90
9383;DHT22;4731;49.708;10.816;2022-10-18T16:28:13;17.50;99.90